Time;durP1;ratioP1;P1;durP2;ratioP2;P2;SDS_P1;SDS_P2;PMS_P1;PMS_P2;Temp;Humidity;BMP_temperature;BMP_pressure;BME280_temperature;BME280_humidity;BME280_pressure;Samples;Min_cycle;Max_cycle;Signal;HPM_P1;HPM_P2
2022/04/22 00:02:06;;;;;;;6.38;4.60;;;;;;;8.65;57.11;100456.72;5074091;28;20032;-41
2022/04/22 00:04:31;;;;;;;4.97;4.43;;;;;;;8.76;56.72;100449.28;5055453;28;20036;-42
2022/04/22 00:06:57;;;;;;;7.78;5.50;;;;;;;8.83;57.04;100458.25;5073380;28;20060;-41
2022/04/22 00:09:23;;;;;;;8.55;5.43;;;;;;;8.64;58.02;100443.56;5073312;28;20078;-42
2022/04/22 00:11:49;;;;;;;9.95;5.40;;;;;;;8.66;58.50;100447.69;5073273;28;20181;-43
2022/04/22 00:14:15;;;;;;;7.75;5.28;;;;;;;8.72;58.31;100446.13;5055883;28;20040;-43
2022/04/22 00:16:41;;;;;;;9.95;4.85;;;;;;;8.65;58.44;100426.47;5073384;28;20401;-43
2022/04/22 00:19:06;;;;;;;6.20;4.40;;;;;;;8.85;57.43;100446.34;5055244;28;20052;-43
2022/04/22 00:21:32;;;;;;;16.90;6.20;;;;;;;8.86;58.42;100437.31;5073740;28;20029;-44
2022/04/22 00:23:58;;;;;;;8.77;4.97;;;;;;;8.86;58.39;100439.16;5073238;28;20021;-45
2022/04/22 00:26:24;;;;;;;7.43;4.85;;;;;;;8.91;57.88;100434.06;5055161;28;20040;-46
2022/04/22 00:28:50;;;;;;;9.13;5.13;;;;;;;8.77;58.36;100416.16;5073290;28;20047;-43
2022/04/22 00:31:15;;;;;;;8.07;5.47;;;;;;;8.81;59.04;100433.50;5074269;28;20040;-43
2022/04/22 00:33:41;;;;;;;8.15;5.60;;;;;;;8.83;58.92;100426.94;5073610;28;20052;-45
2022/04/22 00:36:08;;;;;;;7.57;6.43;;;;;;;8.89;59.12;100422.69;5073979;28;20121;-44
2022/04/22 00:38:34;;;;;;;9.43;5.43;;;;;;;8.78;60.46;100420.47;5073573;28;20036;-44
2022/04/22 00:41:00;;;;;;;10.48;5.97;;;;;;;8.74;60.42;100400.44;5073434;28;20028;-43
2022/04/22 00:43:27;;;;;;;11.00;5.60;;;;;;;8.88;58.87;100410.34;5073009;28;20500;-44
2022/04/22 00:45:54;;;;;;;15.00;6.32;;;;;;;8.73;60.14;100399.63;5073242;28;20028;-42
2022/04/22 00:48:21;;;;;;;15.80;6.78;;;;;;;8.66;61.84;100404.03;5055427;28;20036;-43
2022/04/22 00:50:48;;;;;;;9.45;6.63;;;;;;;8.70;60.52;100398.13;5073186;28;20032;-43
2022/04/22 00:53:14;;;;;;;11.35;6.10;;;;;;;8.45;61.58;100386.84;5038488;28;20029;-42
2022/04/22 00:55:43;;;;;;;13.13;6.45;;;;;;;8.64;61.26;100393.50;5073124;28;20035;-43
2022/04/22 00:58:10;;;;;;;9.93;5.68;;;;;;;8.65;60.86;100386.31;5072863;28;20029;-42
2022/04/22 01:00:36;;;;;;;11.98;6.50;;;;;;;8.63;61.37;100389.16;5073389;28;20024;-42
2022/04/22 01:03:02;;;;;;;15.13;6.70;;;;;;;8.55;62.48;100393.78;5073898;28;20028;-42
2022/04/22 01:11:00;;;;;;;11.38;6.28;;;;;;;8.40;62.00;100375.81;5062285;28;20075;-42
2022/04/22 01:13:26;;;;;;;10.68;6.90;;;;;;;8.12;63.60;100371.03;5059111;28;20381;-47
2022/04/22 01:15:52;;;;;;;14.10;7.10;;;;;;;8.03;64.31;100374.78;5059216;28;20027;-42
2022/04/22 01:18:18;;;;;;;9.48;6.32;;;;;;;7.95;64.15;100370.34;5077176;28;20028;-42
2022/04/22 01:20:44;;;;;;;12.82;6.35;;;;;;;7.88;65.05;100369.38;5076959;28;20024;-43
2022/04/22 01:23:10;;;;;;;18.42;7.68;;;;;;;7.91;64.82;100369.03;5076327;28;20036;-42
2022/04/22 01:25:36;;;;;;;10.25;6.53;;;;;;;7.85;64.84;100369.72;5058664;28;20203;-42
2022/04/22 01:28:02;;;;;;;12.38;6.82;;;;;;;7.88;65.02;100372.06;5076283;28;20552;-42
2022/04/22 01:30:29;;;;;;;11.60;7.07;;;;;;;7.90;64.43;100367.38;5058647;28;20036;-43
2022/04/22 01:32:56;;;;;;;10.60;6.25;;;;;;;7.94;64.91;100370.50;5077179;28;20067;-42
2022/04/22 01:35:24;;;;;;;11.07;7.82;;;;;;;8.00;64.57;100364.44;5078351;28;20028;-43
2022/04/22 01:37:50;;;;;;;13.50;7.07;;;;;;;7.94;65.84;100357.97;5078229;28;20059;-43
2022/04/22 01:40:17;;;;;;;12.88;7.70;;;;;;;7.88;65.21;100339.97;5078058;28;20358;-44
2022/04/22 01:42:43;;;;;;;10.00;6.90;;;;;;;7.99;64.75;100364.66;5077755;28;20036;-42
2022/04/22 01:45:10;;;;;;;9.75;6.75;;;;;;;8.10;64.73;100367.72;5077219;28;20373;-43
2022/04/22 01:47:36;;;;;;;13.55;7.50;;;;;;;8.11;64.13;100358.66;5042714;28;20098;-45
2022/04/22 01:50:03;;;;;;;14.52;7.82;;;;;;;8.12;64.80;100367.53;5042813;28;20036;-43
2022/04/22 01:52:29;;;;;;;13.13;7.05;;;;;;;8.08;64.88;100360.91;5077774;28;20081;-42
2022/04/22 01:54:56;;;;;;;13.20;7.30;;;;;;;8.04;65.64;100356.88;5060198;28;20040;-43
2022/04/22 01:57:23;;;;;;;21.95;8.18;;;;;;;8.05;65.48;100335.31;5059877;28;20028;-43
2022/04/22 01:59:49;;;;;;;15.77;7.53;;;;;;;8.08;65.68;100348.34;5060379;28;20025;-43
2022/04/22 02:02:16;;;;;;;15.82;7.43;;;;;;;8.16;65.66;100352.78;5077683;28;20028;-43
2022/04/22 02:04:42;;;;;;;11.38;7.65;;;;;;;7.82;64.98;100281.03;5059904;28;20055;-43
2022/04/22 02:07:08;;;;;;;14.32;8.00;;;;;;;8.15;65.42;100332.38;5076986;28;20059;-44
2022/04/22 02:09:35;;;;;;;12.15;7.40;;;;;;;8.13;66.06;100350.47;5041448;28;20024;-42
2022/04/22 02:12:01;;;;;;;11.73;8.02;;;;;;;8.14;65.94;100346.78;5075869;28;20047;-43
2022/04/22 02:14:26;;;;;;;14.38;8.80;;;;;;;8.04;66.17;100333.69;5041152;28;20025;-43
2022/04/22 02:16:53;;;;;;;13.98;8.25;;;;;;;8.05;66.10;100340.66;5074946;28;20029;-42
2022/04/22 02:19:19;;;;;;;13.98;7.97;;;;;;;7.97;66.64;100331.88;5075915;28;20021;-43
2022/04/22 02:21:45;;;;;;;13.15;8.43;;;;;;;7.98;66.64;100333.56;5075569;28;20521;-43
2022/04/22 02:24:12;;;;;;;18.48;8.77;;;;;;;7.98;66.66;100331.69;5075723;28;20412;-44
2022/04/22 02:29:24;;;;;;;15.98;8.85;;;;;;;8.00;66.59;100326.19;5060438;28;20122;-44
2022/04/22 02:31:52;;;;;;;22.90;8.70;;;;;;;8.03;66.62;100331.19;5075493;28;20041;-44
2022/04/22 02:34:20;;;;;;;15.52;9.68;;;;;;;7.87;68.59;100318.75;5075804;28;20094;-43
2022/04/22 02:36:46;;;;;;;14.32;8.95;;;;;;;7.65;67.63;100299.03;5040799;28;20489;-43
2022/04/22 02:39:12;;;;;;;23.17;9.80;;;;;;;7.74;68.55;100295.28;5074844;28;20037;-44
2022/04/22 02:47:09;;;;;;;18.02;9.38;;;;;;;7.91;68.13;100290.66;5060123;28;20126;-43
2022/04/22 02:49:35;;;;;;;15.80;8.63;;;;;;;8.16;67.18;100315.34;5075586;28;20477;-44
2022/04/22 02:52:01;;;;;;;20.48;9.70;;;;;;;8.15;68.45;100321.69;5075604;28;20338;-43
2022/04/22 02:54:30;;;;;;;18.58;10.13;;;;;;;8.06;68.26;100314.75;5075396;28;20033;-43
2022/04/22 02:56:57;;;;;;;17.25;9.27;;;;;;;8.02;69.30;100311.59;5075305;28;20115;-43
2022/04/22 02:59:23;;;;;;;19.00;10.38;;;;;;;7.99;69.07;100305.81;5075957;28;20028;-43
2022/04/22 03:01:49;;;;;;;16.63;10.95;;;;;;;8.00;68.79;100310.13;5075737;28;20028;-43
2022/04/22 03:04:15;;;;;;;12.38;9.25;;;;;;;7.86;70.08;100307.25;5075297;28;20111;-43
2022/04/22 03:06:41;;;;;;;16.98;9.20;;;;;;;7.91;69.06;100290.66;5057272;28;20039;-43
2022/04/22 03:09:07;;;;;;;17.70;10.27;;;;;;;8.03;69.30;100302.56;5074861;28;20386;-46
2022/04/22 03:11:34;;;;;;;15.43;10.25;;;;;;;8.06;69.29;100296.03;5074990;28;20029;-44
2022/04/22 03:14:01;;;;;;;21.02;9.90;;;;;;;8.21;68.95;100304.06;5057122;28;20040;-46
2022/04/22 03:16:27;;;;;;;19.02;10.43;;;;;;;8.21;69.08;100294.22;5074844;28;20107;-45
2022/04/22 03:18:53;;;;;;;14.00;8.63;;;;;;;8.33;67.69;100300.78;5075111;28;20364;-43
2022/04/22 03:21:19;;;;;;;20.63;9.85;;;;;;;8.39;68.42;100301.06;5075082;28;20108;-43
2022/04/22 03:23:45;;;;;;;21.92;10.23;;;;;;;8.36;68.35;100288.03;5057094;28;20035;-43
2022/04/22 03:26:11;;;;;;;18.35;10.77;;;;;;;8.28;68.75;100292.50;5074646;28;20037;-43
2022/04/22 03:28:38;;;;;;;25.08;11.85;;;;;;;8.23;69.54;100275.31;5056589;28;20024;-43
2022/04/22 03:31:05;;;;;;;23.15;11.23;;;;;;;8.13;69.77;100276.41;5075211;28;20032;-43
2022/04/22 03:33:31;;;;;;;20.20;10.77;;;;;;;8.19;70.36;100290.91;5075264;28;20028;-41
2022/04/22 03:35:57;;;;;;;21.38;10.82;;;;;;;8.14;70.19;100285.28;5076513;28;20078;-43
2022/04/22 03:38:23;;;;;;;26.48;11.25;;;;;;;8.20;69.94;100281.84;5041398;28;20472;-42
2022/04/22 03:40:51;;;;;;;24.70;11.57;;;;;;;8.09;71.06;100290.31;5058295;28;20028;-43
2022/04/22 03:43:17;;;;;;;20.45;11.35;;;;;;;8.14;71.05;100282.59;5074816;28;20457;-42
2022/04/22 03:45:44;;;;;;;20.73;11.18;;;;;;;8.17;70.27;100287.56;5056308;28;20056;-42
2022/04/22 03:48:13;;;;;;;17.55;11.70;;;;;;;8.12;71.20;100289.97;5074177;28;20036;-43
2022/04/22 03:50:40;;;;;;;21.83;11.68;;;;;;;8.16;71.50;100291.25;5074360;28;20094;-43
2022/04/22 03:53:11;;;;;;;17.65;10.30;;;;;;;8.26;70.76;100286.47;5042501;28;20103;-47
2022/04/22 03:55:38;;;;;;;21.42;11.65;;;;;;;8.28;70.86;100276.44;5077132;28;20496;-43
2022/04/22 03:58:11;;;;;;;25.25;11.43;;;;;;;8.24;71.49;100264.41;5076292;28;20032;-43
2022/04/22 04:00:42;;;;;;;27.38;13.13;;;;;;;8.29;71.16;100266.56;5044629;28;20048;-43
2022/04/22 04:03:09;;;;;;;21.60;12.07;;;;;;;8.37;71.39;100266.47;5058013;28;20033;-43
2022/04/22 04:05:36;;;;;;;18.15;11.60;;;;;;;8.36;71.46;100263.97;5057070;28;20024;-43
2022/04/22 04:08:02;;;;;;;21.52;12.20;;;;;;;8.30;71.95;100250.34;5041458;28;20107;-42
2022/04/22 04:15:59;;;;;;;20.38;11.52;;;;;;;8.19;72.96;100255.28;5033129;28;20044;-43
2022/04/22 04:18:27;;;;;;;22.88;12.70;;;;;;;8.21;71.91;100240.72;5033946;28;20033;-42
2022/04/22 04:23:38;;;;;;;19.98;12.40;;;;;;;8.34;72.85;100248.94;5032889;28;20109;-43
2022/04/22 04:26:06;;;;;;;21.73;11.85;;;;;;;8.29;72.60;100243.31;5032897;28;20075;-45
2022/04/22 04:28:33;;;;;;;26.55;13.05;;;;;;;8.25;72.22;100227.81;5032588;28;20094;-44
2022/04/22 04:30:59;;;;;;;27.10;13.55;;;;;;;8.22;73.25;100242.38;5033785;28;20371;-44
2022/04/22 04:33:25;;;;;;;23.92;13.30;;;;;;;8.18;73.84;100241.09;5034295;28;20037;-43
2022/04/22 04:35:51;;;;;;;27.60;12.48;;;;;;;8.28;72.87;100233.63;5016651;28;20152;-44
2022/04/22 04:38:17;;;;;;;22.35;11.68;;;;;;;8.25;72.37;100217.94;5032907;28;20033;-43
2022/04/22 04:40:44;;;;;;;26.95;12.38;;;;;;;8.33;73.47;100227.72;5035412;28;20108;-45
2022/04/22 04:43:10;;;;;;;21.65;12.52;;;;;;;8.40;72.35;100217.94;5036869;28;20120;-43
2022/04/22 04:45:36;;;;;;;26.35;13.38;;;;;;;8.35;72.90;100228.34;5038331;28;20464;-43
2022/04/22 04:48:03;;;;;;;28.88;13.50;;;;;;;8.30;74.29;100234.28;5037907;28;20030;-42
2022/04/22 04:50:29;;;;;;;22.90;12.90;;;;;;;8.34;73.69;100232.06;5037757;28;20374;-41
2022/04/22 04:52:55;;;;;;;24.70;11.90;;;;;;;8.45;73.56;100236.13;5036629;28;20041;-42
2022/04/22 04:55:21;;;;;;;20.92;12.60;;;;;;;8.43;74.03;100235.47;5036305;28;20437;-44
2022/04/22 04:57:48;;;;;;;22.17;13.30;;;;;;;8.43;74.29;100239.00;5037507;28;20091;-43
2022/04/22 05:00:14;;;;;;;23.35;12.25;;;;;;;8.40;74.40;100238.53;5037615;28;20022;-43
2022/04/22 05:02:40;;;;;;;26.20;12.90;;;;;;;8.38;74.04;100237.88;5037933;28;20025;-43
2022/04/22 05:05:07;;;;;;;27.77;13.13;;;;;;;8.48;74.10;100235.78;5037598;28;20470;-43
2022/04/22 05:07:34;;;;;;;29.17;12.73;;;;;;;8.50;73.58;100239.91;5052006;28;20044;-43
2022/04/22 05:10:00;;;;;;;23.58;12.63;;;;;;;8.48;73.64;100241.13;5077528;28;20056;-43
2022/04/22 05:12:26;;;;;;;32.00;14.07;;;;;;;8.51;74.21;100238.91;5077396;28;20353;-44
2022/04/22 05:14:52;;;;;;;28.85;13.82;;;;;;;8.51;73.21;100241.59;5077262;28;20075;-44
2022/04/22 05:17:18;;;;;;;35.42;13.88;;;;;;;8.51;74.55;100246.94;5077081;28;20033;-43
2022/04/22 05:19:43;;;;;;;22.70;12.65;;;;;;;8.49;73.92;100216.84;5059306;28;20017;-43
2022/04/22 05:22:09;;;;;;;28.23;12.80;;;;;;;8.70;73.47;100237.50;5077467;28;20170;-43
2022/04/22 05:24:35;;;;;;;25.63;13.38;;;;;;;8.76;72.93;100243.94;5077264;28;20067;-44
2022/04/22 05:27:01;;;;;;;23.05;13.02;;;;;;;8.73;73.47;100238.97;5058966;28;20040;-43
2022/04/22 05:34:59;;;;;;;29.00;13.18;;;;;;;8.67;73.04;100210.25;5048565;28;20028;-43
2022/04/22 05:37:25;;;;;;;22.80;11.93;;;;;;;8.58;73.07;100206.03;5077114;28;20439;-43
2022/04/22 05:39:51;;;;;;;24.77;12.65;;;;;;;8.65;72.87;100205.09;5077072;28;20058;-44
2022/04/22 05:42:16;;;;;;;21.77;10.95;;;;;;;8.92;72.79;100242.91;5058545;28;20484;-44
2022/04/22 05:44:42;;;;;;;31.15;12.60;;;;;;;8.99;73.07;100237.63;5076723;28;20039;-44
2022/04/22 05:47:08;;;;;;;31.98;13.00;;;;;;;9.00;72.98;100241.97;5077141;28;20024;-43
2022/04/22 05:49:34;;;;;;;23.63;12.68;;;;;;;9.03;72.40;100234.38;5077651;28;20115;-43
2022/04/22 05:51:59;;;;;;;26.17;12.20;;;;;;;9.06;72.45;100236.69;5042130;28;20143;-43
2022/04/22 05:54:25;;;;;;;24.95;12.32;;;;;;;9.08;72.76;100241.84;5076744;28;20036;-43
2022/04/22 05:56:51;;;;;;;33.20;11.73;;;;;;;9.05;72.71;100234.19;5076783;28;20033;-43
2022/04/22 05:59:17;;;;;;;25.15;11.90;;;;;;;9.14;72.75;100242.94;5076623;28;20064;-44
2022/04/22 06:01:42;;;;;;;22.27;11.63;;;;;;;9.19;72.45;100235.16;5042724;28;20059;-45
2022/04/22 06:04:08;;;;;;;26.50;12.90;;;;;;;9.27;72.34;100245.78;5059740;28;20033;-41
2022/04/22 06:06:34;;;;;;;36.10;13.50;;;;;;;9.27;72.45;100238.56;5059627;28;20020;-45
2022/04/22 06:11:46;;;;;;;27.58;11.80;;;;;;;9.22;72.21;100240.97;5063025;28;20041;-44
2022/04/22 06:14:12;;;;;;;27.77;12.38;;;;;;;9.14;73.23;100235.75;5043792;28;20032;-46
2022/04/22 06:16:39;;;;;;;29.63;12.82;;;;;;;9.13;72.81;100234.06;5077700;28;20039;-42
2022/04/22 06:19:05;;;;;;;26.67;12.57;;;;;;;9.05;74.11;100237.69;5077238;28;20103;-43
2022/04/22 06:21:30;;;;;;;21.55;12.05;;;;;;;9.06;74.00;100233.16;5076899;28;20360;-42
2022/04/22 06:23:56;;;;;;;30.30;12.05;;;;;;;9.11;73.76;100225.41;5076989;28;20036;-43
2022/04/22 06:26:22;;;;;;;20.60;11.38;;;;;;;9.31;73.27;100233.66;5076265;28;20098;-43
2022/04/22 06:28:48;;;;;;;34.92;12.90;;;;;;;9.28;73.17;100236.69;5076009;28;20032;-43
2022/04/22 06:31:14;;;;;;;28.75;13.30;;;;;;;9.47;73.29;100233.41;5075897;28;20704;-45
2022/04/22 06:33:40;;;;;;;27.65;13.30;;;;;;;9.56;72.98;100234.06;5076458;28;20032;-43
2022/04/22 06:36:13;;;;;;;37.78;12.57;;;;;;;9.77;71.83;100221.66;5076282;28;20150;-43
2022/04/22 06:38:40;;;;;;;33.10;12.57;;;;;;;9.84;71.05;100223.38;5076404;28;20028;-45
2022/04/22 06:46:41;;;;;;;32.30;11.75;;;;;;;10.18;70.69;100219.06;5047353;28;20028;-43
2022/04/22 06:49:11;;;;;;;29.45;12.30;;;;;;;10.33;70.77;100218.16;5075688;28;20032;-44
2022/04/22 06:51:40;;;;;;;25.63;12.18;;;;;;;10.35;70.42;100222.31;5075446;28;20028;-43
2022/04/22 06:54:07;;;;;;;32.53;13.18;;;;;;;10.42;70.03;100216.97;5058141;28;20377;-44
2022/04/22 06:56:34;;;;;;;23.83;11.65;;;;;;;10.52;69.76;100220.09;5075665;28;20040;-43
2022/04/22 06:59:00;;;;;;;36.60;12.70;;;;;;;10.52;69.94;100209.38;5075408;28;20040;-44
2022/04/22 07:01:27;;;;;;;28.13;12.18;;;;;;;10.39;70.15;100215.50;5057922;28;20461;-47
2022/04/22 07:03:57;;;;;;;27.02;11.73;;;;;;;10.40;69.58;100211.81;5074976;28;20025;-44
2022/04/22 07:06:23;;;;;;;36.40;13.60;;;;;;;10.24;70.25;100204.03;5075669;28;20063;-43
2022/04/22 07:08:49;;;;;;;27.75;12.30;;;;;;;10.24;70.57;100220.13;5074920;28;20080;-42
2022/04/22 07:11:24;;;;;;;21.25;11.60;;;;;;;10.46;70.20;100218.22;5075960;28;20060;-42
2022/04/22 07:13:50;;;;;;;;;;;;;;;10.72;69.41;100214.84;5075946;28;20028;-42
2022/04/22 07:16:18;;;;;;;26.17;11.75;;;;;;;10.83;69.17;100187.38;5076210;28;19908;-43
2022/04/22 07:18:44;;;;;;;25.75;12.05;;;;;;;11.02;68.19;100203.75;5075212;28;20033;-41
2022/04/22 07:21:10;;;;;;;30.05;11.88;;;;;;;10.94;68.12;100193.19;5075653;28;20024;-42
2022/04/22 07:23:36;;;;;;;29.55;13.10;;;;;;;11.07;68.53;100204.00;5057897;28;20028;-43
2022/04/22 07:26:07;;;;;;;27.17;12.23;;;;;;;11.10;68.31;100208.13;5042260;28;20470;-42
2022/04/22 07:28:34;;;;;;;22.92;11.73;;;;;;;11.10;68.37;100208.13;5041838;28;20047;-60
2022/04/22 07:31:01;;;;;;;37.40;12.52;;;;;;;11.05;67.82;100206.06;5057146;28;20512;-42
2022/04/22 07:33:27;;;;;;;24.80;12.18;;;;;;;10.97;68.05;100200.84;5074889;28;20089;-42
2022/04/22 07:35:53;;;;;;;26.08;11.40;;;;;;;11.09;67.61;100196.56;5074860;28;20476;-44
2022/04/22 07:38:20;;;;;;;20.52;11.57;;;;;;;11.14;67.95;100195.94;5074860;28;20170;-47
2022/04/22 07:40:50;;;;;;;26.42;11.15;;;;;;;11.26;67.37;100198.84;5057049;28;20031;-42
2022/04/22 07:48:48;;;;;;;25.02;12.23;;;;;;;11.35;67.37;100194.94;5059701;28;20085;-43
2022/04/22 07:51:15;;;;;;;27.77;12.30;;;;;;;11.67;66.52;100190.59;5057212;28;20024;-43
2022/04/22 07:53:41;;;;;;;26.90;12.73;;;;;;;11.91;65.39;100191.03;5074640;28;20032;-43
2022/04/22 07:56:07;;;;;;;19.02;11.07;;;;;;;11.94;65.29;100188.75;5040005;28;20090;-43
2022/04/22 07:58:33;;;;;;;29.90;12.15;;;;;;;12.08;64.63;100189.53;5074646;28;20460;-43
2022/04/22 08:00:59;;;;;;;23.65;11.93;;;;;;;12.09;64.83;100196.59;5057053;28;20050;-45
2022/04/22 08:03:26;;;;;;;23.35;11.68;;;;;;;12.17;64.98;100187.44;5075760;28;20033;-44
2022/04/22 08:05:52;;;;;;;24.73;10.82;;;;;;;12.37;64.40;100193.59;5076744;28;20025;-43
2022/04/22 08:08:17;;;;;;;28.00;11.07;;;;;;;12.16;64.23;100194.69;5076254;28;20059;-46
2022/04/22 08:10:44;;;;;;;29.10;11.43;;;;;;;12.31;64.23;100197.16;5074915;28;20029;-47
2022/04/22 08:13:11;;;;;;;29.48;11.43;;;;;;;12.52;63.53;100187.16;5056242;28;20032;-43
2022/04/22 08:15:37;;;;;;;20.98;10.70;;;;;;;12.34;63.26;100188.63;5074246;28;20036;-42
2022/04/22 08:18:06;;;;;;;21.60;10.55;;;;;;;12.48;63.90;100196.66;5075033;28;20169;-45
2022/04/22 08:20:33;;;;;;;17.48;10.40;;;;;;;12.69;63.35;100185.59;5074803;28;20526;-42
2022/04/22 08:23:00;;;;;;;22.17;10.75;;;;;;;12.63;62.65;100180.25;5056336;28;20082;-42
2022/04/22 08:25:26;;;;;;;22.60;10.85;;;;;;;12.35;63.87;100184.91;5077197;28;20100;-45
2022/04/22 08:27:53;;;;;;;21.95;10.23;;;;;;;12.84;63.13;100190.72;5075769;28;20028;-43
2022/04/22 08:30:18;;;;;;;31.27;11.27;;;;;;;12.77;62.47;100189.91;5059127;28;20032;-45
2022/04/22 08:32:45;;;;;;;24.25;9.70;;;;;;;12.69;62.23;100184.78;5058819;28;20097;-43
2022/04/22 08:35:11;;;;;;;20.88;9.90;;;;;;;12.97;62.46;100187.94;5059736;28;20028;-45
2022/04/22 08:37:38;;;;;;;20.30;10.25;;;;;;;13.17;61.07;100185.13;5056514;28;20476;-44
2022/04/22 08:40:06;;;;;;;20.75;9.65;;;;;;;13.49;59.96;100185.13;5074221;28;20032;-44
2022/04/22 08:42:35;;;;;;;20.02;8.30;;;;;;;13.67;59.22;100181.69;5057717;28;20031;-43
2022/04/22 08:45:02;;;;;;;15.55;9.18;;;;;;;13.45;59.03;100150.75;5075588;28;20041;-44
2022/04/22 08:50:16;;;;;;;16.05;9.05;;;;;;;13.63;59.38;100180.47;5045106;28;20071;-43
2022/04/22 08:52:45;;;;;;;13.73;9.00;;;;;;;13.58;58.51;100169.50;5055509;28;20379;-43
2022/04/22 08:55:12;;;;;;;15.98;7.45;;;;;;;13.58;58.54;100176.75;5073421;28;20074;-42
2022/04/22 08:57:41;;;;;;;23.17;8.07;;;;;;;13.62;56.78;100165.31;5073634;28;20051;-43
2022/04/22 09:00:08;;;;;;;15.13;7.93;;;;;;;13.63;56.96;100174.22;5056386;28;20024;-43
2022/04/22 09:02:34;;;;;;;17.88;8.25;;;;;;;13.88;56.64;100149.94;5055446;28;20031;-44
2022/04/22 09:05:00;;;;;;;15.00;8.10;;;;;;;14.41;56.57;100165.56;5038933;28;20043;-44
2022/04/22 09:07:28;;;;;;;24.13;8.07;;;;;;;14.42;55.44;100160.97;5073390;28;20055;-43
2022/04/22 09:09:54;;;;;;;11.73;8.80;;;;;;;13.77;55.89;100147.97;5055417;28;20024;-42
2022/04/22 09:12:22;;;;;;;15.75;8.57;;;;;;;13.46;57.15;100163.16;5039444;28;20035;-42
2022/04/22 09:14:51;;;;;;;12.35;7.60;;;;;;;13.43;58.09;100158.19;5073491;28;20055;-43
2022/04/22 09:17:23;;;;;;;15.27;7.93;;;;;;;13.16;57.60;100161.91;5073550;28;20487;-43
2022/04/22 09:19:51;;;;;;;21.38;8.98;;;;;;;12.83;58.37;100147.81;5073408;28;20040;-43
2022/04/22 09:22:19;;;;;;;15.65;8.10;;;;;;;13.46;57.20;100158.59;5055931;28;20574;-44
2022/04/22 09:24:54;;;;;;;15.15;7.75;;;;;;;14.04;55.51;100148.50;5056179;28;20101;-42
2022/04/22 09:27:35;;;;;;;14.93;7.43;;;;;;;14.99;54.22;100155.22;5059978;28;20040;-42
2022/04/22 09:30:07;;;;;;;11.55;7.00;;;;;;;15.05;53.54;100157.03;5078355;28;20051;-43
2022/04/22 09:32:37;;;;;;;16.20;7.15;;;;;;;14.66;53.49;100154.66;5059819;28;20024;-43
2022/04/22 09:35:20;;;;;;;12.18;6.90;;;;;;;15.42;52.17;100138.75;5060370;28;20073;-42
2022/04/22 09:43:47;;;;;;;17.85;7.38;;;;;;;14.29;54.89;100135.75;5027013;28;20086;-43
2022/04/22 09:46:27;;;;;;;16.02;7.22;;;;;;;16.52;49.44;100133.59;5040181;28;20032;-44
2022/04/22 09:48:58;;;;;;;14.30;6.80;;;;;;;16.08;50.69;100138.63;5057558;28;20107;-45
2022/04/22 09:51:27;;;;;;;12.35;6.97;;;;;;;15.51;51.72;100138.41;5056865;28;20496;-43
2022/04/22 09:54:03;;;;;;;10.23;6.30;;;;;;;15.33;52.52;100142.03;5038627;28;20045;-43
2022/04/22 09:56:32;;;;;;;18.25;6.68;;;;;;;15.02;53.23;100135.84;5039172;28;20028;-44
2022/04/22 09:58:58;;;;;;;11.18;6.28;;;;;;;14.73;52.77;100132.09;5056894;28;20351;-44
2022/04/22 10:01:25;;;;;;;10.55;6.13;;;;;;;15.72;51.26;100124.28;5056522;28;20381;-44
2022/04/22 10:03:51;;;;;;;10.95;5.72;;;;;;;15.80;49.37;100133.97;5056589;28;20037;-43
2022/04/22 10:06:18;;;;;;;10.00;5.47;;;;;;;15.42;49.89;100124.41;5039663;28;20111;-44
2022/04/22 10:08:46;;;;;;;12.65;4.57;;;;;;;15.24;50.97;100128.03;5039030;28;20053;-43
2022/04/22 10:11:15;;;;;;;12.95;5.15;;;;;;;14.82;51.14;100128.88;5058480;28;20369;-44
2022/04/22 10:13:44;;;;;;;5.93;4.72;;;;;;;14.82;51.49;100126.16;5041792;28;20473;-44
2022/04/22 10:16:14;;;;;;;7.20;5.03;;;;;;;14.62;51.74;100121.03;5058555;28;20366;-44
2022/04/22 10:18:41;;;;;;;8.63;5.10;;;;;;;15.11;50.98;100131.75;5058470;28;20116;-42
2022/04/22 10:21:08;;;;;;;7.07;4.70;;;;;;;16.03;48.28;100122.31;5041244;28;20431;-42
2022/04/22 10:23:35;;;;;;;6.22;5.00;;;;;;;15.54;48.51;100111.69;5058111;28;20025;-43
2022/04/22 10:26:03;;;;;;;6.15;5.20;;;;;;;15.27;49.92;100119.44;5040150;28;20025;-43
2022/04/22 10:28:30;;;;;;;5.80;4.80;;;;;;;14.98;50.99;100113.84;5040653;28;20433;-42
2022/04/22 10:31:00;;;;;;;7.93;4.47;;;;;;;15.17;50.64;100116.47;5056438;28;20033;-43
2022/04/22 10:33:37;;;;;;;11.13;5.05;;;;;;;16.35;48.64;100119.16;5056609;28;20029;-42
2022/04/22 10:36:05;;;;;;;11.25;4.70;;;;;;;18.36;43.57;100108.56;5056401;28;20115;-42
2022/04/22 10:38:41;;;;;;;11.88;5.07;;;;;;;19.16;43.46;100094.41;5038168;28;20056;-43
2022/04/22 10:41:23;;;;;;;5.57;4.45;;;;;;;20.60;38.54;100097.94;5039974;28;20444;-45
2022/04/22 10:49:39;;;;;;;12.70;4.20;;;;;;;18.86;41.55;100086.81;5041350;28;20028;-44
2022/04/22 10:52:14;;;;;;;9.30;4.22;;;;;;;18.44;42.46;100084.72;5037933;28;20496;-43
2022/04/22 10:55:00;;;;;;;;;;;;;;;18.44;41.45;100085.53;5056083;28;20470;-43
2022/04/22 10:57:31;;;;;;;3.70;3.40;;;;;;;17.56;44.39;100090.91;5040589;28;19909;-43
2022/04/22 11:00:27;;;;;;;8.93;4.00;;;;;;;18.99;40.94;100086.38;5055590;28;20025;-43
2022/04/22 11:03:03;;;;;;;6.60;3.95;;;;;;;19.61;38.22;100084.91;5025305;28;20082;-43
2022/04/22 11:05:37;;;;;;;7.05;3.58;;;;;;;20.72;37.08;100051.31;5036914;28;20040;-44
2022/04/22 11:08:05;;;;;;;7.05;3.70;;;;;;;21.04;35.50;100065.53;5055379;28;20067;-43
2022/04/22 11:11:00;;;;;;;6.07;3.60;;;;;;;19.40;37.47;100081.25;5037624;28;20190;-43
2022/04/22 11:13:33;;;;;;;5.82;3.85;;;;;;;18.31;40.05;100078.59;5041870;28;20098;-43
2022/04/22 11:16:11;;;;;;;8.45;3.67;;;;;;;18.73;39.15;100072.50;5055193;28;20037;-44
2022/04/22 11:18:40;;;;;;;4.95;3.40;;;;;;;18.45;40.04;100068.16;5038112;28;20025;-43
2022/04/22 11:21:41;;;;;;;12.15;3.67;;;;;;;18.38;39.27;100081.94;5055990;28;20033;-43
2022/04/22 11:24:09;;;;;;;7.43;3.50;;;;;;;17.86;40.08;100074.22;5043008;28;20040;-43
2022/04/22 11:26:36;;;;;;;7.18;3.83;;;;;;;18.14;38.98;100064.25;5055166;28;20024;-43
2022/04/22 11:29:07;;;;;;;5.40;3.50;;;;;;;19.18;36.74;100059.56;5021181;28;20033;-43
2022/04/22 11:31:35;;;;;;;12.52;4.18;;;;;;;17.87;39.41;100051.44;5055348;28;20049;-46
2022/04/22 11:34:05;;;;;;;8.55;4.22;;;;;;;17.50;40.32;100065.56;5037643;28;20180;-47
2022/04/22 11:36:42;;;;;;;12.30;3.95;;;;;;;17.10;41.70;100055.72;5037011;28;20021;-44
2022/04/22 11:39:12;;;;;;;7.65;4.03;;;;;;;16.87;41.11;100062.13;5055465;28;20088;-45
2022/04/22 11:41:50;;;;;;;8.15;3.45;;;;;;;16.35;41.78;100060.34;5054530;28;20104;-43
2022/04/22 11:44:21;;;;;;;5.47;3.63;;;;;;;16.55;41.55;100059.09;5037003;28;20496;-46
2022/04/22 11:46:47;;;;;;;13.15;3.20;;;;;;;19.69;36.53;100045.47;5054998;28;20025;-42
2022/04/22 11:49:13;;;;;;;5.30;2.67;;;;;;;21.35;33.71;100040.09;5054412;28;20057;-44
2022/04/22 11:51:41;;;;;;;7.70;3.75;;;;;;;20.08;33.71;100056.03;5054770;28;20075;-44
2022/04/22 11:54:07;;;;;;;13.35;2.80;;;;;;;19.14;35.39;100042.13;5055138;28;20128;-42
2022/04/22 11:56:35;;;;;;;4.10;3.10;;;;;;;18.37;36.82;100038.72;5036906;28;20032;-43
2022/04/22 11:59:02;;;;;;;7.22;2.72;;;;;;;17.55;38.07;100048.50;5036479;28;20499;-45
2022/04/22 12:10:00;;;;;;;6.97;3.25;;;;;;;17.04;39.23;100059.44;4999945;28;20356;-42
2022/04/22 12:12:28;;;;;;;4.63;2.88;;;;;;;17.24;39.94;100050.78;5013471;28;20030;-42
2022/04/22 12:15:00;;;;;;;5.75;3.65;;;;;;;17.94;38.05;100057.50;5014518;28;20601;-46
2022/04/22 12:17:26;;;;;;;7.80;4.03;;;;;;;17.24;38.78;100056.22;5014822;28;20048;-43
2022/04/22 12:19:52;;;;;;;9.40;3.95;;;;;;;16.34;40.72;100052.47;4996764;28;20030;-43
2022/04/22 12:22:18;;;;;;;8.48;4.05;;;;;;;16.13;42.25;100057.47;5015177;28;20103;-45
2022/04/22 12:25:05;;;;;;;9.40;4.10;;;;;;;16.16;41.96;100058.91;5014770;28;20421;-43
2022/04/22 12:27:31;;;;;;;10.35;4.35;;;;;;;16.04;43.11;100059.72;5013581;28;20033;-44